sensor_id;sensor_type;location;lat;lon;timestamp;pressure;altitude;pressure_sealevel;temperature;humidity
65175;BME280;51761;42.126;24.752;2023-04-27T00:01:11;99101.22;;;13.25;55.92
65175;BME280;51761;42.126;24.752;2023-04-27T00:03:37;99101.44;;;13.18;56.34
65175;BME280;51761;42.126;24.752;2023-04-27T00:06:03;99110.06;;;13.24;56.11
65175;BME280;51761;42.126;24.752;2023-04-27T00:08:29;99090.59;;;13.08;56.20
65175;BME280;51761;42.126;24.752;2023-04-27T00:10:55;99118.59;;;13.20;55.95
65175;BME280;51761;42.126;24.752;2023-04-27T00:13:21;99115.34;;;13.22;56.14
65175;BME280;51761;42.126;24.752;2023-04-27T00:15:46;99102.03;;;13.01;56.29
65175;BME280;51761;42.126;24.752;2023-04-27T00:18:12;99114.69;;;13.05;56.54
65175;BME280;51761;42.126;24.752;2023-04-27T00:20:37;99135.88;;;13.19;56.29
65175;BME280;51761;42.126;24.752;2023-04-27T00:23:04;99111.34;;;12.98;56.27
65175;BME280;51761;42.126;24.752;2023-04-27T00:25:30;99139.81;;;13.09;56.19
65175;BME280;51761;42.126;24.752;2023-04-27T00:27:55;99133.19;;;13.03;56.71
65175;BME280;51761;42.126;24.752;2023-04-27T00:30:21;99122.44;;;12.89;56.99
65175;BME280;51761;42.126;24.752;2023-04-27T00:32:46;99121.78;;;12.85;57.74
65175;BME280;51761;42.126;24.752;2023-04-27T00:35:12;99136.78;;;12.91;57.99
65175;BME280;51761;42.126;24.752;2023-04-27T00:37:37;99138.50;;;12.76;58.17
65175;BME280;51761;42.126;24.752;2023-04-27T00:40:04;99166.84;;;12.78;58.94
65175;BME280;51761;42.126;24.752;2023-04-27T00:42:33;99140.59;;;12.59;59.53
65175;BME280;51761;42.126;24.752;2023-04-27T00:44:59;99157.97;;;12.67;59.52
65175;BME280;51761;42.126;24.752;2023-04-27T00:47:25;99161.78;;;12.60;59.33
65175;BME280;51761;42.126;24.752;2023-04-27T00:49:51;99167.16;;;12.55;60.67
65175;BME280;51761;42.126;24.752;2023-04-27T00:52:17;99172.31;;;12.57;60.34
65175;BME280;51761;42.126;24.752;2023-04-27T00:54:43;99163.69;;;12.51;61.15
65175;BME280;51761;42.126;24.752;2023-04-27T00:57:09;99173.41;;;12.47;60.43
65175;BME280;51761;42.126;24.752;2023-04-27T00:59:34;99170.03;;;12.39;61.54
65175;BME280;51761;42.126;24.752;2023-04-27T01:02:00;99142.47;;;12.13;61.95
65175;BME280;51761;42.126;24.752;2023-04-27T01:04:26;99165.53;;;12.17;62.23
65175;BME280;51761;42.126;24.752;2023-04-27T01:06:53;99171.34;;;12.10;61.94
65175;BME280;51761;42.126;24.752;2023-04-27T01:09:19;99169.19;;;12.01;61.05
65175;BME280;51761;42.126;24.752;2023-04-27T01:11:45;99146.84;;;11.85;62.18
65175;BME280;51761;42.126;24.752;2023-04-27T01:14:11;99177.78;;;11.94;62.45
65175;BME280;51761;42.126;24.752;2023-04-27T01:16:36;99181.25;;;11.98;62.75
65175;BME280;51761;42.126;24.752;2023-04-27T01:19:03;99173.31;;;11.97;62.96
65175;BME280;51761;42.126;24.752;2023-04-27T01:21:29;99187.47;;;12.06;61.45
65175;BME280;51761;42.126;24.752;2023-04-27T01:23:55;99177.66;;;11.98;60.65
65175;BME280;51761;42.126;24.752;2023-04-27T01:26:21;99187.91;;;12.17;60.41
65175;BME280;51761;42.126;24.752;2023-04-27T01:28:47;99196.22;;;12.20;59.53
65175;BME280;51761;42.126;24.752;2023-04-27T01:31:13;99199.38;;;12.22;59.46
65175;BME280;51761;42.126;24.752;2023-04-27T01:33:40;99205.78;;;12.35;58.86
65175;BME280;51761;42.126;24.752;2023-04-27T01:36:07;99205.66;;;12.26;57.26
65175;BME280;51761;42.126;24.752;2023-04-27T01:38:33;99194.13;;;12.24;57.03
65175;BME280;51761;42.126;24.752;2023-04-27T01:40:59;99192.19;;;12.21;56.60
65175;BME280;51761;42.126;24.752;2023-04-27T01:43:27;99207.56;;;12.29;56.77
65175;BME280;51761;42.126;24.752;2023-04-27T01:45:52;99217.53;;;12.30;56.45
65175;BME280;51761;42.126;24.752;2023-04-27T01:48:18;99219.00;;;12.47;55.89
65175;BME280;51761;42.126;24.752;2023-04-27T01:50:43;99214.84;;;12.39;55.89
65175;BME280;51761;42.126;24.752;2023-04-27T01:53:09;99196.78;;;12.28;56.43
65175;BME280;51761;42.126;24.752;2023-04-27T01:55:34;99218.00;;;12.41;56.22
65175;BME280;51761;42.126;24.752;2023-04-27T01:58:00;99227.97;;;12.42;56.50
65175;BME280;51761;42.126;24.752;2023-04-27T02:00:25;99224.81;;;12.40;56.07
65175;BME280;51761;42.126;24.752;2023-04-27T02:02:51;99209.13;;;12.30;55.35
65175;BME280;51761;42.126;24.752;2023-04-27T02:05:18;99200.47;;;12.25;56.07
65175;BME280;51761;42.126;24.752;2023-04-27T02:07:44;99218.09;;;12.38;55.27
65175;BME280;51761;42.126;24.752;2023-04-27T02:10:09;99233.56;;;12.42;55.20
65175;BME280;51761;42.126;24.752;2023-04-27T02:12:35;99231.91;;;12.45;54.91
65175;BME280;51761;42.126;24.752;2023-04-27T02:15:00;99247.22;;;12.40;55.57
65175;BME280;51761;42.126;24.752;2023-04-27T02:17:27;99220.06;;;12.25;55.16
65175;BME280;51761;42.126;24.752;2023-04-27T02:19:53;99218.25;;;12.18;55.83
65175;BME280;51761;42.126;24.752;2023-04-27T02:22:19;99215.66;;;12.11;55.93
65175;BME280;51761;42.126;24.752;2023-04-27T02:24:45;99239.59;;;12.28;55.21
65175;BME280;51761;42.126;24.752;2023-04-27T02:27:10;99248.13;;;12.37;55.05
65175;BME280;51761;42.126;24.752;2023-04-27T02:29:37;99242.50;;;12.37;55.07
65175;BME280;51761;42.126;24.752;2023-04-27T02:32:05;99218.41;;;12.27;55.37
65175;BME280;51761;42.126;24.752;2023-04-27T02:34:30;99245.78;;;12.36;54.59
65175;BME280;51761;42.126;24.752;2023-04-27T02:36:56;99250.22;;;12.33;54.25
65175;BME280;51761;42.126;24.752;2023-04-27T02:39:21;99251.38;;;12.36;54.06
65175;BME280;51761;42.126;24.752;2023-04-27T02:41:47;99252.69;;;12.31;54.17
65175;BME280;51761;42.126;24.752;2023-04-27T02:44:12;99255.41;;;12.35;53.93
65175;BME280;51761;42.126;24.752;2023-04-27T02:46:38;99249.00;;;12.34;53.85
65175;BME280;51761;42.126;24.752;2023-04-27T02:49:03;99239.19;;;12.14;54.36
65175;BME280;51761;42.126;24.752;2023-04-27T02:51:29;99245.28;;;12.25;53.80
65175;BME280;51761;42.126;24.752;2023-04-27T02:53:54;99252.34;;;12.29;53.65
65175;BME280;51761;42.126;24.752;2023-04-27T02:56:20;99262.91;;;12.38;53.97
65175;BME280;51761;42.126;24.752;2023-04-27T02:58:46;99239.69;;;12.25;53.46
65175;BME280;51761;42.126;24.752;2023-04-27T03:01:14;99264.03;;;12.40;53.23
65175;BME280;51761;42.126;24.752;2023-04-27T03:03:39;99260.88;;;12.38;53.70
65175;BME280;51761;42.126;24.752;2023-04-27T03:06:05;99266.59;;;12.35;52.97
65175;BME280;51761;42.126;24.752;2023-04-27T03:08:31;99267.72;;;12.37;53.72
65175;BME280;51761;42.126;24.752;2023-04-27T03:10:57;99273.88;;;12.32;52.79
65175;BME280;51761;42.126;24.752;2023-04-27T03:13:22;99246.91;;;12.10;52.94
65175;BME280;51761;42.126;24.752;2023-04-27T03:15:47;99274.63;;;12.33;52.81
65175;BME280;51761;42.126;24.752;2023-04-27T03:18:13;99275.34;;;12.37;52.25
65175;BME280;51761;42.126;24.752;2023-04-27T03:20:38;99279.81;;;12.34;52.21
65175;BME280;51761;42.126;24.752;2023-04-27T03:23:04;99272.97;;;12.35;52.32
65175;BME280;51761;42.126;24.752;2023-04-27T03:25:30;99279.84;;;12.47;53.21
65175;BME280;51761;42.126;24.752;2023-04-27T03:27:56;99267.59;;;12.28;52.24
65175;BME280;51761;42.126;24.752;2023-04-27T03:30:21;99285.66;;;12.40;52.16
65175;BME280;51761;42.126;24.752;2023-04-27T03:32:47;99282.59;;;12.34;52.30
65175;BME280;51761;42.126;24.752;2023-04-27T03:35:13;99269.16;;;12.29;52.20
65175;BME280;51761;42.126;24.752;2023-04-27T03:37:38;99273.28;;;12.25;52.21
65175;BME280;51761;42.126;24.752;2023-04-27T03:40:04;99293.59;;;12.41;52.37
65175;BME280;51761;42.126;24.752;2023-04-27T03:42:33;99298.09;;;12.39;52.17
65175;BME280;51761;42.126;24.752;2023-04-27T03:44:58;99296.00;;;12.27;51.77
65175;BME280;51761;42.126;24.752;2023-04-27T03:47:24;99283.34;;;12.22;53.01
65175;BME280;51761;42.126;24.752;2023-04-27T03:49:49;99299.19;;;12.41;52.57
65175;BME280;51761;42.126;24.752;2023-04-27T03:52:15;99304.59;;;12.36;51.61
65175;BME280;51761;42.126;24.752;2023-04-27T03:54:42;99304.31;;;12.30;51.94
65175;BME280;51761;42.126;24.752;2023-04-27T03:57:07;99310.69;;;12.31;51.48
65175;BME280;51761;42.126;24.752;2023-04-27T03:59:33;99315.53;;;12.30;52.20
65175;BME280;51761;42.126;24.752;2023-04-27T04:01:58;99314.63;;;12.33;51.78
65175;BME280;51761;42.126;24.752;2023-04-27T04:04:24;99299.00;;;12.20;51.93
65175;BME280;51761;42.126;24.752;2023-04-27T04:06:49;99304.88;;;12.25;51.74
65175;BME280;51761;42.126;24.752;2023-04-27T04:09:15;99321.19;;;12.43;51.32
65175;BME280;51761;42.126;24.752;2023-04-27T04:11:40;99297.16;;;12.29;52.58
65175;BME280;51761;42.126;24.752;2023-04-27T04:14:06;99311.63;;;12.40;51.78
65175;BME280;51761;42.126;24.752;2023-04-27T04:16:32;99316.06;;;12.54;52.76
65175;BME280;51761;42.126;24.752;2023-04-27T04:18:58;99330.66;;;12.61;51.81
65175;BME280;51761;42.126;24.752;2023-04-27T04:21:24;99325.94;;;12.58;50.78
65175;BME280;51761;42.126;24.752;2023-04-27T04:23:49;99339.00;;;12.77;50.53
65175;BME280;51761;42.126;24.752;2023-04-27T04:26:15;99291.34;;;12.36;50.33
65175;BME280;51761;42.126;24.752;2023-04-27T04:28:40;99328.81;;;12.55;50.67
65175;BME280;51761;42.126;24.752;2023-04-27T04:31:06;99335.81;;;12.63;49.93
65175;BME280;51761;42.126;24.752;2023-04-27T04:33:34;99354.22;;;12.63;50.52
65175;BME280;51761;42.126;24.752;2023-04-27T04:36:02;99343.47;;;12.74;50.40
65175;BME280;51761;42.126;24.752;2023-04-27T04:38:28;99331.59;;;12.70;50.84
65175;BME280;51761;42.126;24.752;2023-04-27T04:40:53;99356.28;;;12.88;49.80
65175;BME280;51761;42.126;24.752;2023-04-27T04:43:19;99347.16;;;12.71;50.48
65175;BME280;51761;42.126;24.752;2023-04-27T04:45:45;99347.25;;;12.68;49.85
65175;BME280;51761;42.126;24.752;2023-04-27T04:48:13;99354.69;;;12.74;50.59
65175;BME280;51761;42.126;24.752;2023-04-27T04:50:39;99367.72;;;12.81;50.10
65175;BME280;51761;42.126;24.752;2023-04-27T04:53:06;99365.47;;;12.88;50.32
65175;BME280;51761;42.126;24.752;2023-04-27T04:55:31;99347.63;;;12.82;49.31
65175;BME280;51761;42.126;24.752;2023-04-27T04:57:57;99345.38;;;12.77;49.96
65175;BME280;51761;42.126;24.752;2023-04-27T05:00:22;99367.09;;;13.02;50.22
65175;BME280;51761;42.126;24.752;2023-04-27T05:02:48;99378.19;;;12.93;49.25
65175;BME280;51761;42.126;24.752;2023-04-27T05:05:14;99387.28;;;12.97;49.80
65175;BME280;51761;42.126;24.752;2023-04-27T05:07:40;99352.75;;;12.71;48.74
65175;BME280;51761;42.126;24.752;2023-04-27T05:10:06;99385.28;;;12.81;51.17
65175;BME280;51761;42.126;24.752;2023-04-27T05:12:31;99389.78;;;12.79;49.49
65175;BME280;51761;42.126;24.752;2023-04-27T05:14:57;99379.97;;;12.71;48.96
65175;BME280;51761;42.126;24.752;2023-04-27T05:17:22;99383.63;;;12.84;50.31
65175;BME280;51761;42.126;24.752;2023-04-27T05:19:48;99397.44;;;12.91;49.80
65175;BME280;51761;42.126;24.752;2023-04-27T05:22:13;99388.69;;;12.89;49.68
65175;BME280;51761;42.126;24.752;2023-04-27T05:24:39;99391.16;;;12.87;48.66
65175;BME280;51761;42.126;24.752;2023-04-27T05:27:05;99397.72;;;12.96;48.94
65175;BME280;51761;42.126;24.752;2023-04-27T05:29:30;99396.16;;;12.95;48.74
65175;BME280;51761;42.126;24.752;2023-04-27T05:31:55;99377.81;;;12.91;49.50
65175;BME280;51761;42.126;24.752;2023-04-27T05:34:21;99403.09;;;13.03;49.27
65175;BME280;51761;42.126;24.752;2023-04-27T05:36:47;99393.56;;;13.01;48.30
65175;BME280;51761;42.126;24.752;2023-04-27T05:39:12;99377.19;;;12.99;48.77
65175;BME280;51761;42.126;24.752;2023-04-27T05:41:38;99407.28;;;13.11;47.86
65175;BME280;51761;42.126;24.752;2023-04-27T05:44:04;99410.22;;;13.20;46.83
65175;BME280;51761;42.126;24.752;2023-04-27T05:46:31;99398.09;;;13.11;47.40
65175;BME280;51761;42.126;24.752;2023-04-27T05:48:57;99407.19;;;13.15;48.54
65175;BME280;51761;42.126;24.752;2023-04-27T05:51:22;99413.22;;;13.13;47.83
65175;BME280;51761;42.126;24.752;2023-04-27T05:53:48;99421.16;;;13.02;47.70
65175;BME280;51761;42.126;24.752;2023-04-27T05:56:13;99410.41;;;13.13;50.53
65175;BME280;51761;42.126;24.752;2023-04-27T05:58:38;99429.38;;;13.09;47.68
65175;BME280;51761;42.126;24.752;2023-04-27T06:01:04;99416.72;;;12.89;47.59
65175;BME280;51761;42.126;24.752;2023-04-27T06:03:30;99425.97;;;13.02;48.47
65175;BME280;51761;42.126;24.752;2023-04-27T06:05:57;99429.38;;;13.09;47.14
65175;BME280;51761;42.126;24.752;2023-04-27T06:08:23;99404.69;;;13.04;47.54
65175;BME280;51761;42.126;24.752;2023-04-27T06:10:52;99429.72;;;13.24;48.86
65175;BME280;51761;42.126;24.752;2023-04-27T06:13:18;99406.56;;;13.36;46.43
65175;BME280;51761;42.126;24.752;2023-04-27T06:15:44;99411.03;;;13.46;47.57
65175;BME280;51761;42.126;24.752;2023-04-27T06:18:09;99432.72;;;13.58;46.08
65175;BME280;51761;42.126;24.752;2023-04-27T06:20:35;99427.66;;;13.53;45.25
65175;BME280;51761;42.126;24.752;2023-04-27T06:23:01;99412.19;;;13.48;47.13
65175;BME280;51761;42.126;24.752;2023-04-27T06:25:26;99423.88;;;13.84;47.72
65175;BME280;51761;42.126;24.752;2023-04-27T06:27:56;99411.72;;;13.62;45.84
65175;BME280;51761;42.126;24.752;2023-04-27T06:30:23;99431.72;;;13.89;45.41
65175;BME280;51761;42.126;24.752;2023-04-27T06:32:50;99436.91;;;13.91;45.29
65175;BME280;51761;42.126;24.752;2023-04-27T06:35:16;99411.97;;;13.80;45.52
65175;BME280;51761;42.126;24.752;2023-04-27T06:37:41;99436.75;;;13.82;45.15
65175;BME280;51761;42.126;24.752;2023-04-27T06:40:07;99434.53;;;13.77;45.23
65175;BME280;51761;42.126;24.752;2023-04-27T06:42:33;99420.81;;;13.54;45.34
65175;BME280;51761;42.126;24.752;2023-04-27T06:44:59;99410.63;;;13.47;46.43
65175;BME280;51761;42.126;24.752;2023-04-27T06:47:24;99438.00;;;13.68;47.19
65175;BME280;51761;42.126;24.752;2023-04-27T06:49:50;99439.56;;;13.69;46.29
65175;BME280;51761;42.126;24.752;2023-04-27T06:52:16;99438.34;;;13.83;46.90
65175;BME280;51761;42.126;24.752;2023-04-27T06:54:42;99447.66;;;13.80;46.11
65175;BME280;51761;42.126;24.752;2023-04-27T06:57:07;99442.72;;;13.71;46.59
65175;BME280;51761;42.126;24.752;2023-04-27T06:59:34;99442.94;;;13.77;46.45
65175;BME280;51761;42.126;24.752;2023-04-27T07:01:59;99443.50;;;13.84;46.23
65175;BME280;51761;42.126;24.752;2023-04-27T07:04:25;99442.50;;;13.91;46.38
65175;BME280;51761;42.126;24.752;2023-04-27T07:06:51;99444.94;;;14.01;45.88
65175;BME280;51761;42.126;24.752;2023-04-27T07:09:17;99441.94;;;13.96;45.51
65175;BME280;51761;42.126;24.752;2023-04-27T07:11:42;99434.41;;;13.93;45.31
65175;BME280;51761;42.126;24.752;2023-04-27T07:14:08;99443.97;;;14.20;45.36
65175;BME280;51761;42.126;24.752;2023-04-27T07:16:33;99426.97;;;14.36;46.01
65175;BME280;51761;42.126;24.752;2023-04-27T07:18:59;99448.69;;;14.69;45.47
65175;BME280;51761;42.126;24.752;2023-04-27T07:21:24;99441.97;;;14.67;44.46
65175;BME280;51761;42.126;24.752;2023-04-27T07:23:49;99436.16;;;14.83;50.03
65175;BME280;51761;42.126;24.752;2023-04-27T07:26:15;99437.16;;;14.89;44.02
65175;BME280;51761;42.126;24.752;2023-04-27T07:28:42;99413.28;;;14.93;44.37
65175;BME280;51761;42.126;24.752;2023-04-27T07:31:08;99421.78;;;15.24;64.00
65175;BME280;51761;42.126;24.752;2023-04-27T07:33:33;99431.38;;;15.87;63.41
65175;BME280;51761;42.126;24.752;2023-04-27T07:36:00;99433.94;;;15.94;45.87
65175;BME280;51761;42.126;24.752;2023-04-27T07:38:26;99427.06;;;16.04;41.57
65175;BME280;51761;42.126;24.752;2023-04-27T07:40:53;99437.72;;;16.09;42.72
65175;BME280;51761;42.126;24.752;2023-04-27T07:43:19;99421.84;;;16.33;42.58
65175;BME280;51761;42.126;24.752;2023-04-27T07:45:47;99437.56;;;16.61;41.62
65175;BME280;51761;42.126;24.752;2023-04-27T07:48:13;99425.22;;;16.67;40.78
65175;BME280;51761;42.126;24.752;2023-04-27T07:50:39;99434.47;;;16.86;39.44
65175;BME280;51761;42.126;24.752;2023-04-27T07:53:05;99450.94;;;16.96;44.02
65175;BME280;51761;42.126;24.752;2023-04-27T07:55:30;99432.91;;;16.76;40.25
65175;BME280;51761;42.126;24.752;2023-04-27T07:57:56;99430.09;;;16.76;39.01
65175;BME280;51761;42.126;24.752;2023-04-27T08:00:21;99438.06;;;16.77;41.30
65175;BME280;51761;42.126;24.752;2023-04-27T08:02:48;99425.53;;;16.60;41.63
65175;BME280;51761;42.126;24.752;2023-04-27T08:05:13;99445.59;;;16.71;39.19
65175;BME280;51761;42.126;24.752;2023-04-27T08:07:39;99417.22;;;16.66;39.53
65175;BME280;51761;42.126;24.752;2023-04-27T08:10:08;99436.81;;;16.96;39.43
65175;BME280;51761;42.126;24.752;2023-04-27T08:12:34;99439.44;;;17.27;39.16
65175;BME280;51761;42.126;24.752;2023-04-27T08:14:59;99426.28;;;17.51;42.84
65175;BME280;51761;42.126;24.752;2023-04-27T08:17:25;99428.72;;;17.75;37.73
65175;BME280;51761;42.126;24.752;2023-04-27T08:19:51;99413.63;;;17.78;37.21
65175;BME280;51761;42.126;24.752;2023-04-27T08:22:16;99405.03;;;18.05;36.97
65175;BME280;51761;42.126;24.752;2023-04-27T08:24:42;99429.41;;;18.82;39.33
65175;BME280;51761;42.126;24.752;2023-04-27T08:27:07;99404.28;;;18.61;35.74
65175;BME280;51761;42.126;24.752;2023-04-27T08:29:33;99393.41;;;18.83;38.91
65175;BME280;51761;42.126;24.752;2023-04-27T08:32:00;99415.16;;;19.15;35.57
65175;BME280;51761;42.126;24.752;2023-04-27T08:34:27;99398.66;;;19.13;37.02
65175;BME280;51761;42.126;24.752;2023-04-27T08:36:52;99406.84;;;19.11;39.03
65175;BME280;51761;42.126;24.752;2023-04-27T08:39:18;99409.44;;;19.23;35.81
65175;BME280;51761;42.126;24.752;2023-04-27T08:41:44;99408.19;;;19.39;36.67
65175;BME280;51761;42.126;24.752;2023-04-27T08:44:10;99404.75;;;19.35;37.53
65175;BME280;51761;42.126;24.752;2023-04-27T08:46:36;99413.66;;;19.05;38.54
65175;BME280;51761;42.126;24.752;2023-04-27T08:49:02;99414.19;;;18.56;37.65
65175;BME280;51761;42.126;24.752;2023-04-27T08:51:28;99413.16;;;18.68;38.60
65175;BME280;51761;42.126;24.752;2023-04-27T08:53:55;99403.66;;;18.57;37.94
65175;BME280;51761;42.126;24.752;2023-04-27T08:56:27;99392.75;;;18.64;38.81
65175;BME280;51761;42.126;24.752;2023-04-27T08:58:54;99395.59;;;18.88;39.43
65175;BME280;51761;42.126;24.752;2023-04-27T09:01:21;99388.69;;;19.03;38.06
65175;BME280;51761;42.126;24.752;2023-04-27T09:03:48;99377.59;;;19.57;35.58
65175;BME280;51761;42.126;24.752;2023-04-27T09:06:14;99389.47;;;20.05;36.67
65175;BME280;51761;42.126;24.752;2023-04-27T09:08:49;99376.09;;;20.05;36.48
65175;BME280;51761;42.126;24.752;2023-04-27T09:13:56;99380.31;;;20.30;34.49
65175;BME280;51761;42.126;24.752;2023-04-27T09:16:23;99384.00;;;20.36;33.49
65175;BME280;51761;42.126;24.752;2023-04-27T09:18:49;99384.13;;;20.27;34.04
65175;BME280;51761;42.126;24.752;2023-04-27T09:21:28;99383.56;;;20.23;35.65
65175;BME280;51761;42.126;24.752;2023-04-27T09:23:56;99388.09;;;20.15;33.28
65175;BME280;51761;42.126;24.752;2023-04-27T09:26:24;99381.16;;;20.36;35.12
65175;BME280;51761;42.126;24.752;2023-04-27T09:28:52;99387.56;;;21.10;34.41
65175;BME280;51761;42.126;24.752;2023-04-27T09:31:18;99379.94;;;20.82;34.27
65175;BME280;51761;42.126;24.752;2023-04-27T09:33:44;99358.31;;;21.04;32.47
65175;BME280;51761;42.126;24.752;2023-04-27T09:36:10;99380.31;;;21.09;32.58
65175;BME280;51761;42.126;24.752;2023-04-27T09:38:36;99374.56;;;21.04;34.13
65175;BME280;51761;42.126;24.752;2023-04-27T09:41:02;99374.28;;;21.78;32.85
65175;BME280;51761;42.126;24.752;2023-04-27T09:43:28;99360.72;;;21.93;29.72
65175;BME280;51761;42.126;24.752;2023-04-27T09:45:55;99349.81;;;21.86;32.85
65175;BME280;51761;42.126;24.752;2023-04-27T09:48:22;99371.09;;;21.65;34.16
65175;BME280;51761;42.126;24.752;2023-04-27T09:50:50;99365.69;;;21.42;31.82
65175;BME280;51761;42.126;24.752;2023-04-27T09:53:37;99371.75;;;20.44;34.63
65175;BME280;51761;42.126;24.752;2023-04-27T09:56:26;99361.59;;;20.18;35.76
65175;BME280;51761;42.126;24.752;2023-04-27T09:59:13;99345.91;;;20.22;36.39
65175;BME280;51761;42.126;24.752;2023-04-27T10:04:47;99358.75;;;20.18;36.89
65175;BME280;51761;42.126;24.752;2023-04-27T10:07:18;99369.56;;;19.70;37.22
65175;BME280;51761;42.126;24.752;2023-04-27T10:09:45;99359.31;;;19.73;33.62
65175;BME280;51761;42.126;24.752;2023-04-27T10:14:54;99342.72;;;19.08;35.21
65175;BME280;51761;42.126;24.752;2023-04-27T10:17:30;99364.03;;;20.45;35.06
65175;BME280;51761;42.126;24.752;2023-04-27T10:19:58;99361.31;;;20.36;31.96
65175;BME280;51761;42.126;24.752;2023-04-27T10:22:45;99365.56;;;19.77;35.59
65175;BME280;51761;42.126;24.752;2023-04-27T10:25:47;99371.75;;;19.32;33.08
65175;BME280;51761;42.126;24.752;2023-04-27T10:28:16;99367.69;;;19.10;36.01
65175;BME280;51761;42.126;24.752;2023-04-27T10:30:44;99369.00;;;19.23;36.91
65175;BME280;51761;42.126;24.752;2023-04-27T10:33:15;99323.81;;;18.62;34.68
65175;BME280;51761;42.126;24.752;2023-04-27T10:35:43;99336.56;;;18.57;37.60
65175;BME280;51761;42.126;24.752;2023-04-27T10:38:20;99347.03;;;18.66;36.00
65175;BME280;51761;42.126;24.752;2023-04-27T10:43:23;99370.97;;;18.56;40.78
65175;BME280;51761;42.126;24.752;2023-04-27T10:45:49;99345.84;;;18.34;39.89
65175;BME280;51761;42.126;24.752;2023-04-27T10:48:15;99372.16;;;18.49;39.08
65175;BME280;51761;42.126;24.752;2023-04-27T10:50:41;99347.81;;;18.66;38.56
65175;BME280;51761;42.126;24.752;2023-04-27T10:53:08;99377.91;;;18.78;41.40
65175;BME280;51761;42.126;24.752;2023-04-27T10:55:34;99374.53;;;19.03;38.60
65175;BME280;51761;42.126;24.752;2023-04-27T10:58:01;99386.03;;;19.00;35.54
65175;BME280;51761;42.126;24.752;2023-04-27T11:00:27;99371.09;;;18.99;36.89
65175;BME280;51761;42.126;24.752;2023-04-27T11:02:55;99377.44;;;18.94;37.86
65175;BME280;51761;42.126;24.752;2023-04-27T11:05:24;99380.34;;;18.85;38.72
65175;BME280;51761;42.126;24.752;2023-04-27T11:08:06;99377.50;;;18.85;38.88
65175;BME280;51761;42.126;24.752;2023-04-27T11:10:33;99385.56;;;19.01;38.78
65175;BME280;51761;42.126;24.752;2023-04-27T11:13:09;99382.03;;;18.92;39.52
65175;BME280;51761;42.126;24.752;2023-04-27T11:15:55;99387.41;;;18.66;38.38
65175;BME280;51761;42.126;24.752;2023-04-27T11:18:25;99382.41;;;18.61;37.09
65175;BME280;51761;42.126;24.752;2023-04-27T11:20:52;99370.34;;;18.61;38.21
65175;BME280;51761;42.126;24.752;2023-04-27T11:23:30;99384.56;;;18.90;37.21
65175;BME280;51761;42.126;24.752;2023-04-27T11:26:21;99389.88;;;18.73;39.18
65175;BME280;51761;42.126;24.752;2023-04-27T11:29:03;99370.75;;;18.83;37.38
65175;BME280;51761;42.126;24.752;2023-04-27T11:31:43;99396.22;;;18.83;36.67
65175;BME280;51761;42.126;24.752;2023-04-27T11:34:19;99391.16;;;18.72;36.95
65175;BME280;51761;42.126;24.752;2023-04-27T11:37:02;99392.38;;;18.95;39.46
65175;BME280;51761;42.126;24.752;2023-04-27T11:39:37;99391.28;;;19.16;38.73
65175;BME280;51761;42.126;24.752;2023-04-27T11:42:16;99397.69;;;19.16;35.17
65175;BME280;51761;42.126;24.752;2023-04-27T11:44:51;99388.53;;;19.21;33.08
65175;BME280;51761;42.126;24.752;2023-04-27T11:47:17;99391.81;;;19.05;32.12
65175;BME280;51761;42.126;24.752;2023-04-27T11:49:48;99395.69;;;19.08;36.41
65175;BME280;51761;42.126;24.752;2023-04-27T11:52:14;99389.03;;;19.20;32.05
65175;BME280;51761;42.126;24.752;2023-04-27T11:54:50;99391.72;;;19.14;32.89
65175;BME280;51761;42.126;24.752;2023-04-27T11:57:23;99379.31;;;19.12;33.12
65175;BME280;51761;42.126;24.752;2023-04-27T11:59:50;99389.91;;;19.40;36.57
65175;BME280;51761;42.126;24.752;2023-04-27T12:02:16;99382.47;;;19.28;33.58
65175;BME280;51761;42.126;24.752;2023-04-27T12:04:41;99354.94;;;19.28;31.14
65175;BME280;51761;42.126;24.752;2023-04-27T12:07:07;99378.75;;;19.65;31.40
65175;BME280;51761;42.126;24.752;2023-04-27T12:09:33;99360.22;;;19.50;33.62
65175;BME280;51761;42.126;24.752;2023-04-27T12:11:58;99376.41;;;19.78;35.57
65175;BME280;51761;42.126;24.752;2023-04-27T12:14:24;99363.53;;;19.63;35.38
65175;BME280;51761;42.126;24.752;2023-04-27T12:16:50;99380.63;;;20.17;35.24
65175;BME280;51761;42.126;24.752;2023-04-27T12:19:15;99377.91;;;20.63;31.44
65175;BME280;51761;42.126;24.752;2023-04-27T12:21:41;99380.94;;;21.19;33.09
65175;BME280;51761;42.126;24.752;2023-04-27T12:24:07;99361.69;;;21.28;29.92
65175;BME280;51761;42.126;24.752;2023-04-27T12:26:33;99374.94;;;21.93;32.74
65175;BME280;51761;42.126;24.752;2023-04-27T12:28:59;99351.91;;;22.33;29.48
65175;BME280;51761;42.126;24.752;2023-04-27T12:31:25;99376.81;;;22.02;30.65
65175;BME280;51761;42.126;24.752;2023-04-27T12:33:51;99378.94;;;21.76;29.68
65175;BME280;51761;42.126;24.752;2023-04-27T12:36:16;99364.94;;;22.09;31.49
65175;BME280;51761;42.126;24.752;2023-04-27T12:38:42;99359.84;;;22.18;30.04
65175;BME280;51761;42.126;24.752;2023-04-27T12:41:07;99379.59;;;21.96;31.46
65175;BME280;51761;42.126;24.752;2023-04-27T12:43:33;99367.72;;;21.67;31.54
65175;BME280;51761;42.126;24.752;2023-04-27T12:46:02;99361.09;;;21.24;32.20
65175;BME280;51761;42.126;24.752;2023-04-27T12:48:27;99365.16;;;20.92;32.15
65175;BME280;51761;42.126;24.752;2023-04-27T12:50:53;99359.78;;;21.20;31.38
65175;BME280;51761;42.126;24.752;2023-04-27T12:53:18;99361.59;;;20.78;30.63
65175;BME280;51761;42.126;24.752;2023-04-27T12:55:46;99339.53;;;20.67;30.99
65175;BME280;51761;42.126;24.752;2023-04-27T12:58:11;99366.91;;;20.50;33.13
65175;BME280;51761;42.126;24.752;2023-04-27T13:00:37;99347.31;;;20.12;30.22